createdAt,value
2023-05-04T00:01:05.585Z,9.57
2023-05-04T00:03:34.113Z,9.63
2023-05-04T00:06:02.875Z,8.88
2023-05-04T00:08:31.825Z,9.15
2023-05-04T00:11:00.182Z,9.82
2023-05-04T00:13:28.521Z,9.50
2023-05-04T00:15:58.321Z,10.07
2023-05-04T00:18:26.805Z,9.82
2023-05-04T00:20:55.152Z,9.48
2023-05-04T00:23:23.489Z,9.70
2023-05-04T00:25:51.885Z,10.02
2023-05-04T00:28:20.560Z,10.05
2023-05-04T00:30:49.528Z,10.60
2023-05-04T00:33:19.175Z,10.20
2023-05-04T00:35:47.762Z,9.70
2023-05-04T00:38:16.884Z,9.52
2023-05-04T00:40:47.625Z,10.32
2023-05-04T00:43:15.935Z,10.13
2023-05-04T00:45:44.246Z,10.35
2023-05-04T00:48:12.700Z,9.25
2023-05-04T00:50:42.993Z,10.50
2023-05-04T00:53:12.548Z,11.18
2023-05-04T00:55:41.629Z,8.90
2023-05-04T00:58:10.141Z,10.30
2023-05-04T01:00:38.481Z,10.23
2023-05-04T01:03:06.871Z,9.27
2023-05-04T01:05:42.896Z,10.48
2023-05-04T01:08:17.545Z,10.70
2023-05-04T01:10:58.033Z,10.20
2023-05-04T01:13:27.531Z,9.52
2023-05-04T01:15:56.779Z,9.60
2023-05-04T01:18:26.557Z,11.10
2023-05-04T01:20:56.312Z,10.52
2023-05-04T01:23:26.514Z,10.10
2023-05-04T01:26:04.775Z,10.70
2023-05-04T01:28:40.042Z,10.48
2023-05-04T01:31:11.413Z,10.02
2023-05-04T01:33:40.664Z,9.45
2023-05-04T01:36:09.458Z,9.50
2023-05-04T01:38:39.307Z,10.43
2023-05-04T01:41:07.703Z,10.07
2023-05-04T01:43:36.114Z,9.65
2023-05-04T01:46:04.763Z,9.57
2023-05-04T01:48:33.232Z,9.52
2023-05-04T01:51:01.817Z,9.63
2023-05-04T01:53:30.703Z,9.52
2023-05-04T01:56:01.274Z,8.85
2023-05-04T01:58:29.598Z,9.70
2023-05-04T02:00:59.380Z,10.45
2023-05-04T02:03:28.004Z,9.75
2023-05-04T02:05:56.486Z,10.13
2023-05-04T02:08:24.953Z,10.35
2023-05-04T02:10:53.379Z,9.75
2023-05-04T02:13:24.788Z,9.15
2023-05-04T02:15:53.289Z,9.15
2023-05-04T02:18:21.716Z,9.00
2023-05-04T02:20:50.301Z,10.32
2023-05-04T02:23:18.725Z,9.38
2023-05-04T02:25:47.114Z,9.73
2023-05-04T02:28:15.569Z,9.63
2023-05-04T02:30:45.440Z,10.05
2023-05-04T02:33:13.820Z,10.32
2023-05-04T02:35:42.156Z,9.77
2023-05-04T02:38:10.451Z,10.43
2023-05-04T02:40:38.919Z,9.50
2023-05-04T02:43:07.489Z,10.38
2023-05-04T02:45:37.051Z,10.48
2023-05-04T02:48:07.195Z,10.85
2023-05-04T02:50:35.875Z,9.38
2023-05-04T02:53:04.518Z,10.18
2023-05-04T02:55:32.941Z,10.23
2023-05-04T02:58:01.364Z,9.88
2023-05-04T03:00:29.716Z,9.25
2023-05-04T03:02:58.130Z,10.07
2023-05-04T03:05:27.952Z,9.68
2023-05-04T03:07:56.574Z,10.68
2023-05-04T03:10:25.016Z,10.38
2023-05-04T03:12:53.810Z,10.05
2023-05-04T03:15:22.165Z,11.60
2023-05-04T03:17:50.613Z,10.05
2023-05-04T03:20:19.824Z,10.85
2023-05-04T03:22:52.012Z,10.70
2023-05-04T03:25:20.845Z,10.35
2023-05-04T03:27:52.069Z,10.57
2023-05-04T03:30:20.943Z,11.13
2023-05-04T03:32:52.559Z,10.57
2023-05-04T03:35:24.938Z,10.23
2023-05-04T03:37:55.127Z,10.10
2023-05-04T03:40:24.433Z,9.05
2023-05-04T03:42:52.907Z,10.90
2023-05-04T03:45:22.117Z,9.65
2023-05-04T03:47:50.676Z,10.70
2023-05-04T03:50:19.582Z,10.52
2023-05-04T03:52:48.123Z,10.32
2023-05-04T03:55:18.218Z,10.13
2023-05-04T03:57:47.568Z,10.05
2023-05-04T04:00:18.475Z,10.07
2023-05-04T04:02:47.197Z,10.90
2023-05-04T04:05:16.041Z,10.05
2023-05-04T04:07:44.370Z,9.57
2023-05-04T04:10:12.833Z,9.88
2023-05-04T04:12:43.119Z,10.50
2023-05-04T04:15:12.686Z,10.90
2023-05-04T04:17:41.496Z,10.68
2023-05-04T04:20:12.983Z,10.50
2023-05-04T04:22:41.685Z,10.70
2023-05-04T04:25:10.984Z,10.23
2023-05-04T04:27:39.428Z,11.25
2023-05-04T04:30:12.453Z,10.82
2023-05-04T04:32:41.290Z,10.32
2023-05-04T04:35:10.772Z,11.52
2023-05-04T04:37:39.139Z,11.63
2023-05-04T04:40:09.982Z,11.32
2023-05-04T04:42:38.322Z,11.20
2023-05-04T04:45:11.051Z,11.25
2023-05-04T04:47:41.954Z,10.77
2023-05-04T04:50:13.353Z,11.05
2023-05-04T04:52:42.246Z,12.18
2023-05-04T04:55:11.539Z,10.32
2023-05-04T04:57:39.890Z,11.20
2023-05-04T05:00:14.307Z,10.45
2023-05-04T05:02:43.654Z,11.10
2023-05-04T05:05:12.998Z,10.73
2023-05-04T05:07:41.487Z,10.00
2023-05-04T05:10:11.691Z,10.18
2023-05-04T05:12:40.123Z,9.68
2023-05-04T05:15:14.793Z,9.85
2023-05-04T05:17:43.447Z,9.85
2023-05-04T05:20:12.599Z,10.00
2023-05-04T05:22:41.710Z,11.32
2023-05-04T05:25:11.284Z,10.68
2023-05-04T05:27:41.627Z,10.15
2023-05-04T05:30:12.848Z,10.93
2023-05-04T05:32:41.225Z,10.68
2023-05-04T05:35:10.879Z,11.60
2023-05-04T05:37:39.432Z,11.23
2023-05-04T05:40:10.325Z,10.40
2023-05-04T05:42:38.679Z,10.60
2023-05-04T05:45:12.960Z,10.55
2023-05-04T05:47:41.388Z,12.13
2023-05-04T05:50:10.499Z,10.80
2023-05-04T05:52:38.864Z,10.25
2023-05-04T05:55:08.285Z,10.32
2023-05-04T05:57:36.766Z,10.15
2023-05-04T06:00:07.489Z,10.77
2023-05-04T06:02:37.483Z,11.15
2023-05-04T06:05:06.534Z,10.07
2023-05-04T06:07:35.102Z,10.82
2023-05-04T06:10:04.721Z,11.20
2023-05-04T06:12:33.239Z,10.85
2023-05-04T06:15:02.374Z,11.70
2023-05-04T06:17:30.735Z,11.05
2023-05-04T06:20:00.749Z,10.90
2023-05-04T06:22:29.036Z,10.20
2023-05-04T06:25:02.776Z,11.27
2023-05-04T06:27:32.982Z,11.70
2023-05-04T06:30:01.800Z,11.10
2023-05-04T06:32:30.838Z,11.65
2023-05-04T06:35:02.929Z,11.40
2023-05-04T06:37:31.341Z,11.48
2023-05-04T06:39:59.695Z,11.30
2023-05-04T06:42:31.575Z,11.27
2023-05-04T06:45:00.026Z,11.55
2023-05-04T06:47:28.464Z,11.25
2023-05-04T06:49:57.858Z,10.30
2023-05-04T06:52:29.627Z,10.85
2023-05-04T06:54:57.948Z,10.13
2023-05-04T06:57:26.428Z,10.55
2023-05-04T06:59:54.815Z,10.18
2023-05-04T07:02:23.197Z,10.15
2023-05-04T07:04:52.863Z,10.07
2023-05-04T07:07:21.759Z,9.90
2023-05-04T07:09:51.615Z,9.68
2023-05-04T07:12:19.974Z,10.10
2023-05-04T07:14:49.296Z,9.95
2023-05-04T07:17:17.626Z,10.32
2023-05-04T07:19:46.017Z,10.18
2023-05-04T07:22:14.501Z,10.25
2023-05-04T07:24:43.141Z,9.65
2023-05-04T07:27:12.867Z,9.52
2023-05-04T07:29:41.855Z,10.70
2023-05-04T07:32:10.625Z,9.23
2023-05-04T07:34:45.589Z,10.32
2023-05-04T07:37:15.980Z,10.05
2023-05-04T07:39:44.518Z,10.00
2023-05-04T07:42:14.237Z,10.00
2023-05-04T07:44:42.952Z,9.63
2023-05-04T07:47:11.479Z,9.80
2023-05-04T07:49:42.130Z,9.98
2023-05-04T07:52:10.613Z,9.63
2023-05-04T07:54:40.299Z,10.00
2023-05-04T07:57:08.661Z,9.32
2023-05-04T07:59:38.660Z,10.85
2023-05-04T08:02:07.643Z,9.50
2023-05-04T08:04:36.174Z,10.20
2023-05-04T08:07:04.641Z,9.30
2023-05-04T08:09:33.394Z,9.43
2023-05-04T08:12:02.589Z,10.10
2023-05-04T08:14:30.971Z,9.82
2023-05-04T08:17:02.003Z,9.38
2023-05-04T08:19:31.029Z,9.45
2023-05-04T08:21:59.788Z,9.15
2023-05-04T08:24:28.129Z,9.75
2023-05-04T08:27:07.233Z,9.38
2023-05-04T08:29:37.283Z,9.73
2023-05-04T08:32:07.766Z,9.27
2023-05-04T08:34:38.643Z,9.25
2023-05-04T08:37:07.077Z,9.73
2023-05-04T08:39:35.516Z,9.18
2023-05-04T08:42:04.144Z,9.02
2023-05-04T08:44:32.605Z,9.23
2023-05-04T08:47:06.815Z,9.80
2023-05-04T08:49:36.660Z,9.80
2023-05-04T08:52:10.120Z,9.65
2023-05-04T08:54:40.004Z,9.13
2023-05-04T08:57:08.480Z,9.73
2023-05-04T08:59:38.558Z,9.32
2023-05-04T09:02:07.361Z,9.93
2023-05-04T09:04:37.455Z,9.45
2023-05-04T09:07:06.410Z,9.35
2023-05-04T09:09:35.533Z,9.65
2023-05-04T09:12:03.888Z,10.52
2023-05-04T09:14:36.304Z,9.02
2023-05-04T09:17:14.462Z,9.27
2023-05-04T09:19:46.684Z,9.45
2023-05-04T09:22:19.170Z,9.73
2023-05-04T09:24:48.324Z,9.93
2023-05-04T09:27:18.621Z,10.07
2023-05-04T09:29:55.371Z,9.90
2023-05-04T09:32:24.361Z,9.80
2023-05-04T09:34:55.282Z,10.18
2023-05-04T09:37:24.147Z,10.10
2023-05-04T09:39:58.508Z,11.38
2023-05-04T09:42:28.786Z,9.18
2023-05-04T09:45:02.616Z,10.30
2023-05-04T09:47:38.718Z,9.73
2023-05-04T09:50:20.095Z,10.05
2023-05-04T09:52:51.470Z,9.95
2023-05-04T09:55:21.492Z,9.73
2023-05-04T09:57:51.528Z,9.88
2023-05-04T10:00:21.308Z,10.68
2023-05-04T10:02:50.632Z,9.60
2023-05-04T10:05:21.809Z,9.60
2023-05-04T10:07:51.107Z,9.93
2023-05-04T10:10:19.455Z,9.82
2023-05-04T10:12:48.136Z,10.25
2023-05-04T10:15:18.313Z,10.38
2023-05-04T10:18:04.995Z,10.73
2023-05-04T10:21:21.945Z,10.05
2023-05-04T10:24:29.386Z,9.70
2023-05-04T10:27:10.459Z,9.95
2023-05-04T10:29:39.883Z,10.10
2023-05-04T10:32:19.688Z,10.60
2023-05-04T10:34:48.771Z,10.98
2023-05-04T10:37:22.334Z,10.65
2023-05-04T10:39:55.499Z,10.43
2023-05-04T10:42:24.197Z,10.75
2023-05-04T10:44:55.152Z,10.82
2023-05-04T10:47:32.495Z,10.38
2023-05-04T10:50:06.476Z,10.77
2023-05-04T10:52:48.033Z,10.25
2023-05-04T10:55:17.897Z,10.50
2023-05-04T10:57:54.336Z,10.15
2023-05-04T11:00:23.672Z,10.82
2023-05-04T11:02:52.503Z,10.50
2023-05-04T11:05:21.296Z,9.40
2023-05-04T11:07:54.362Z,9.98
2023-05-04T11:10:31.340Z,10.13
2023-05-04T11:13:05.746Z,10.80
2023-05-04T11:15:48.288Z,9.73
2023-05-04T11:18:26.455Z,9.95
2023-05-04T11:20:56.155Z,10.63
2023-05-04T11:23:26.085Z,10.20
2023-05-04T11:25:55.300Z,10.23
2023-05-04T11:28:34.643Z,11.25
2023-05-04T11:31:04.118Z,10.13
2023-05-04T11:33:32.503Z,9.68
2023-05-04T11:36:02.607Z,10.23
2023-05-04T11:38:32.934Z,10.27
2023-05-04T11:41:02.792Z,10.82
2023-05-04T11:43:31.935Z,10.52
2023-05-04T11:46:01.313Z,10.77
2023-05-04T11:48:32.264Z,10.27
2023-05-04T11:51:00.966Z,10.13
2023-05-04T11:53:39.611Z,10.25
2023-05-04T11:56:09.824Z,11.38
2023-05-04T11:58:38.796Z,11.10
2023-05-04T12:01:07.296Z,11.32
2023-05-04T12:03:53.055Z,12.18
2023-05-04T12:06:33.893Z,10.77
2023-05-04T12:09:07.973Z,11.23
2023-05-04T12:11:38.355Z,11.48
2023-05-04T12:14:09.850Z,11.73
2023-05-04T12:16:39.484Z,10.82
2023-05-04T12:19:11.153Z,11.82
2023-05-04T12:21:51.116Z,11.63
2023-05-04T12:24:23.464Z,12.15
2023-05-04T12:26:52.695Z,11.95
2023-05-04T12:29:21.372Z,12.48
2023-05-04T12:31:52.937Z,11.90
2023-05-04T12:34:21.807Z,13.07
2023-05-04T12:36:52.381Z,11.65
2023-05-04T12:39:22.327Z,12.88
2023-05-04T12:41:50.761Z,13.38
2023-05-04T12:44:19.129Z,13.30
2023-05-04T12:46:50.144Z,13.77
2023-05-04T12:49:18.962Z,11.93
2023-05-04T12:51:48.728Z,12.70
2023-05-04T12:54:17.116Z,13.35
2023-05-04T12:56:47.048Z,13.52
2023-05-04T12:59:15.414Z,11.90
2023-05-04T13:01:44.657Z,11.40
2023-05-04T13:04:13.092Z,9.25
2023-05-04T13:06:42.558Z,9.20
2023-05-04T13:09:11.373Z,9.98
2023-05-04T13:11:39.803Z,10.00
2023-05-04T13:14:09.666Z,8.25
2023-05-04T13:16:38.091Z,7.47
2023-05-04T13:19:06.530Z,7.10
2023-05-04T13:21:34.831Z,7.68
2023-05-04T13:24:03.374Z,8.50
2023-05-04T13:26:31.736Z,8.70
2023-05-04T13:29:00.021Z,9.40
2023-05-04T13:31:29.866Z,8.20
2023-05-04T13:33:58.262Z,9.43
2023-05-04T13:36:26.677Z,9.25
2023-05-04T13:38:55.038Z,9.23
2023-05-04T13:41:23.561Z,9.25
2023-05-04T13:43:52.283Z,8.80
2023-05-04T13:46:21.512Z,8.73
2023-05-04T13:48:51.679Z,9.75
2023-05-04T13:51:20.109Z,9.55
2023-05-04T13:53:48.854Z,8.48
2023-05-04T13:56:17.975Z,9.20
2023-05-04T13:58:46.556Z,9.60
2023-05-04T14:01:15.043Z,10.23
2023-05-04T14:03:43.985Z,8.93
2023-05-04T14:06:14.140Z,8.23
2023-05-04T14:08:42.654Z,7.97
2023-05-04T14:11:11.189Z,7.47
2023-05-04T14:13:39.674Z,7.60
2023-05-04T14:16:08.542Z,7.28
2023-05-04T14:18:37.020Z,8.90
2023-05-04T14:21:05.954Z,7.38
2023-05-04T14:23:35.887Z,8.57
2023-05-04T14:26:05.780Z,8.60
2023-05-04T14:28:34.290Z,8.48
2023-05-04T14:31:08.919Z,8.25
2023-05-04T14:33:37.362Z,8.95
2023-05-04T14:36:06.748Z,7.88
2023-05-04T14:38:36.606Z,8.80
2023-05-04T14:41:05.634Z,8.50
2023-05-04T14:43:34.399Z,9.07
2023-05-04T14:46:04.151Z,8.20
2023-05-04T14:48:33.037Z,8.23
2023-05-04T14:51:01.643Z,8.75
2023-05-04T14:54:03.704Z,8.05
2023-05-04T14:56:36.740Z,8.05
2023-05-04T14:59:09.931Z,7.75
2023-05-04T15:02:00.417Z,8.35
2023-05-04T15:04:29.367Z,9.07
2023-05-04T15:07:02.671Z,8.60
2023-05-04T15:09:39.869Z,9.25
2023-05-04T15:12:11.458Z,9.48
2023-05-04T15:14:41.463Z,8.25
2023-05-04T15:17:13.577Z,8.05
2023-05-04T15:19:46.905Z,9.10
2023-05-04T15:22:15.648Z,9.40
2023-05-04T15:24:45.842Z,9.90
2023-05-04T15:27:14.871Z,9.25
2023-05-04T15:30:10.243Z,9.48
2023-05-04T15:32:38.867Z,9.27
2023-05-04T15:35:10.004Z,8.70
2023-05-04T15:37:38.588Z,8.20
2023-05-04T15:40:10.908Z,8.35
2023-05-04T15:42:39.601Z,8.23
2023-05-04T15:45:10.650Z,8.85
2023-05-04T15:47:39.345Z,8.27
2023-05-04T15:50:09.252Z,8.18
2023-05-04T15:52:38.284Z,9.10
2023-05-04T15:55:23.256Z,7.38
2023-05-04T15:57:54.042Z,8.43
2023-05-04T16:00:23.888Z,8.35
2023-05-04T16:02:52.650Z,7.80
2023-05-04T16:05:21.487Z,7.55
2023-05-04T16:07:50.340Z,7.93
2023-05-04T16:10:20.540Z,6.90
2023-05-04T16:12:51.960Z,8.43
2023-05-04T16:15:21.173Z,6.90
2023-05-04T16:17:52.582Z,6.65
2023-05-04T16:20:21.197Z,7.10
2023-05-04T16:22:49.754Z,6.57
2023-05-04T16:25:19.765Z,6.85
2023-05-04T16:27:50.360Z,6.53
2023-05-04T16:30:19.117Z,5.22
2023-05-04T16:32:48.028Z,5.72
2023-05-04T16:35:16.419Z,5.72
2023-05-04T16:37:44.804Z,6.10
2023-05-04T16:40:15.575Z,6.50
2023-05-04T16:42:55.711Z,7.20
2023-05-04T16:45:25.607Z,6.50
2023-05-04T16:47:54.179Z,6.80
2023-05-04T16:50:22.746Z,6.57
2023-05-04T16:52:51.176Z,6.00
2023-05-04T16:55:19.778Z,6.30
2023-05-04T16:57:50.783Z,6.47
2023-05-04T17:00:20.265Z,5.80
2023-05-04T17:02:52.895Z,6.28
2023-05-04T17:05:22.109Z,5.68
2023-05-04T17:07:53.022Z,5.60
2023-05-04T17:10:22.186Z,6.80
2023-05-04T17:12:54.656Z,5.90
2023-05-04T17:15:23.395Z,6.68
2023-05-04T17:17:51.974Z,6.65
2023-05-04T17:20:21.784Z,5.93
2023-05-04T17:22:51.758Z,6.53
2023-05-04T17:25:21.507Z,6.18
2023-05-04T17:27:51.278Z,5.85
2023-05-04T17:30:19.680Z,6.10
2023-05-04T17:32:48.819Z,5.90
2023-05-04T17:35:25.300Z,5.93
2023-05-04T17:37:57.955Z,5.60
2023-05-04T17:40:27.676Z,5.05
2023-05-04T17:42:58.300Z,5.05
2023-05-04T17:45:26.823Z,5.25
2023-05-04T17:47:55.315Z,5.00
2023-05-04T17:50:24.579Z,5.15
2023-05-04T17:52:54.401Z,5.05
2023-05-04T17:55:24.540Z,5.03
2023-05-04T17:57:54.725Z,4.57
2023-05-04T18:00:25.305Z,4.32
2023-05-04T18:02:53.957Z,4.38
2023-05-04T18:05:22.375Z,4.13
2023-05-04T18:07:50.761Z,4.25
2023-05-04T18:10:19.549Z,4.35
2023-05-04T18:12:51.061Z,4.35
2023-05-04T18:15:19.682Z,4.32
2023-05-04T18:17:51.025Z,4.15
2023-05-04T18:20:19.820Z,4.30
2023-05-04T18:22:48.485Z,3.88
2023-05-04T18:25:17.085Z,4.18
2023-05-04T18:27:45.787Z,4.03
2023-05-04T18:30:14.444Z,4.20
2023-05-04T18:32:43.388Z,4.40
2023-05-04T18:35:13.619Z,4.40
2023-05-04T18:37:42.137Z,4.20
2023-05-04T18:40:12.090Z,4.28
2023-05-04T18:42:40.732Z,4.18
2023-05-04T18:45:11.494Z,4.35
2023-05-04T18:47:40.538Z,4.30
2023-05-04T18:50:10.970Z,4.40
2023-05-04T18:52:41.101Z,4.88
2023-05-04T18:55:10.765Z,4.88
2023-05-04T18:57:39.311Z,4.85
2023-05-04T19:00:10.018Z,4.78
2023-05-04T19:02:38.981Z,4.60
2023-05-04T19:05:07.800Z,4.93
2023-05-04T19:07:36.993Z,5.03
2023-05-04T19:10:10.005Z,5.78
2023-05-04T19:12:38.457Z,6.18
2023-05-04T19:15:08.614Z,5.90
2023-05-04T19:17:39.781Z,6.28
2023-05-04T19:20:12.546Z,6.55
2023-05-04T19:22:43.841Z,7.10
2023-05-04T19:25:23.245Z,8.50
2023-05-04T19:28:08.661Z,9.23
2023-05-04T19:30:37.988Z,9.02
2023-05-04T19:33:07.148Z,9.65
2023-05-04T19:35:38.583Z,10.35
2023-05-04T19:38:07.970Z,10.30
2023-05-04T19:40:37.993Z,11.10
2023-05-04T19:43:06.543Z,11.20
2023-05-04T19:45:34.968Z,12.05
2023-05-04T19:48:05.738Z,12.85
2023-05-04T19:50:34.387Z,13.63
2023-05-04T19:53:03.041Z,13.63
2023-05-04T19:55:32.491Z,13.35
2023-05-04T19:58:02.700Z,14.55
2023-05-04T20:00:31.587Z,14.40
2023-05-04T20:03:00.205Z,13.30
2023-05-04T20:05:28.898Z,13.65
2023-05-04T20:07:57.303Z,13.20
2023-05-04T20:10:25.824Z,12.98
2023-05-04T20:12:54.241Z,12.63
2023-05-04T20:15:24.030Z,13.25
2023-05-04T20:17:52.677Z,12.48
2023-05-04T20:20:22.661Z,13.00
2023-05-04T20:22:52.787Z,12.25
2023-05-04T20:25:25.415Z,12.60
2023-05-04T20:27:54.093Z,13.05
2023-05-04T20:30:28.076Z,12.75
2023-05-04T20:32:56.832Z,12.15
2023-05-04T20:35:25.233Z,11.98
2023-05-04T20:37:53.573Z,12.57
2023-05-04T20:40:22.523Z,12.65
2023-05-04T20:42:52.362Z,12.63
2023-05-04T20:45:21.251Z,14.13
2023-05-04T20:47:51.722Z,13.02
2023-05-04T20:50:20.589Z,12.95
2023-05-04T20:52:49.427Z,12.70
2023-05-04T20:55:18.394Z,12.90
2023-05-04T20:57:48.300Z,12.02
2023-05-04T21:00:20.091Z,11.93
2023-05-04T21:02:53.495Z,13.05
2023-05-04T21:05:22.124Z,12.85
2023-05-04T21:07:52.094Z,12.75
2023-05-04T21:10:20.776Z,11.52
2023-05-04T21:12:49.635Z,12.73
2023-05-04T21:15:18.379Z,12.63
2023-05-04T21:17:49.877Z,13.90
2023-05-04T21:20:20.608Z,13.05
2023-05-04T21:22:53.826Z,13.27
2023-05-04T21:25:25.481Z,13.35
2023-05-04T21:27:53.880Z,12.30
2023-05-04T21:30:22.843Z,12.98
2023-05-04T21:32:51.291Z,11.82
2023-05-04T21:35:22.108Z,12.40
2023-05-04T21:37:50.648Z,12.95
2023-05-04T21:40:19.316Z,11.65
2023-05-04T21:42:47.910Z,12.50
2023-05-04T21:45:16.389Z,11.68
2023-05-04T21:47:44.852Z,12.75
2023-05-04T21:50:13.473Z,11.65
2023-05-04T21:52:43.390Z,12.63
2023-05-04T21:55:11.737Z,12.95
2023-05-04T21:57:40.260Z,13.00
2023-05-04T22:00:12.095Z,12.60
2023-05-04T22:02:40.838Z,11.93
2023-05-04T22:05:11.396Z,13.43
2023-05-04T22:07:39.745Z,12.88
2023-05-04T22:10:11.297Z,13.35
2023-05-04T22:12:39.851Z,13.00
2023-05-04T22:15:11.174Z,13.45
2023-05-04T22:17:39.683Z,13.50
2023-05-04T22:20:09.567Z,13.30
2023-05-04T22:22:38.269Z,12.82
2023-05-04T22:25:07.662Z,13.38
2023-05-04T22:27:37.525Z,14.00
2023-05-04T22:30:07.480Z,12.63
2023-05-04T22:32:36.051Z,13.23
2023-05-04T22:35:04.898Z,12.43
2023-05-04T22:37:33.242Z,13.05
2023-05-04T22:40:04.628Z,13.45
2023-05-04T22:42:33.450Z,12.65
2023-05-04T22:45:04.190Z,13.27
2023-05-04T22:47:32.739Z,13.43
2023-05-04T22:50:01.058Z,13.60
2023-05-04T22:52:29.566Z,13.10
2023-05-04T22:54:57.922Z,12.32
2023-05-04T22:57:26.396Z,12.55
2023-05-04T22:59:55.320Z,12.60
2023-05-04T23:02:25.281Z,12.00
2023-05-04T23:04:55.033Z,11.20
2023-05-04T23:07:23.401Z,11.75
2023-05-04T23:09:51.770Z,12.20
2023-05-04T23:12:20.083Z,11.30
2023-05-04T23:14:52.359Z,11.05
2023-05-04T23:17:21.404Z,10.52
2023-05-04T23:19:51.615Z,10.07
2023-05-04T23:22:19.975Z,11.10
2023-05-04T23:24:49.484Z,10.45
2023-05-04T23:27:18.108Z,10.88
2023-05-04T23:29:46.789Z,11.52
2023-05-04T23:32:15.178Z,11.93
2023-05-04T23:34:43.607Z,14.73
2023-05-04T23:37:13.710Z,16.95
2023-05-04T23:39:42.023Z,16.33
2023-05-04T23:42:10.824Z,16.15
2023-05-04T23:44:39.602Z,16.58
2023-05-04T23:47:08.193Z,15.85
2023-05-04T23:49:36.591Z,15.95
2023-05-04T23:52:05.303Z,15.38
2023-05-04T23:54:35.059Z,13.95
2023-05-04T23:57:03.666Z,11.48
2023-05-04T23:59:31.985Z,8.63
